sensor_id;sensor_type;location;lat;lon;timestamp;P1;durP1;ratioP1;P2;durP2;ratioP2
64923;SDS011;51436;44.692;39.214;2022-12-15T00:02:32;12.70;;;7.35;;
64923;SDS011;51436;44.692;39.214;2022-12-15T00:05:17;13.35;;;7.82;;
64923;SDS011;51436;44.692;39.214;2022-12-15T00:08:06;11.65;;;7.03;;
64923;SDS011;51436;44.692;39.214;2022-12-15T00:10:52;9.65;;;6.63;;
64923;SDS011;51436;44.692;39.214;2022-12-15T00:13:38;12.10;;;7.75;;
64923;SDS011;51436;44.692;39.214;2022-12-15T00:16:23;17.77;;;7.93;;
64923;SDS011;51436;44.692;39.214;2022-12-15T00:19:07;18.05;;;7.93;;
64923;SDS011;51436;44.692;39.214;2022-12-15T00:21:52;15.65;;;8.27;;
64923;SDS011;51436;44.692;39.214;2022-12-15T00:24:37;13.40;;;7.72;;
64923;SDS011;51436;44.692;39.214;2022-12-15T00:27:22;14.30;;;7.82;;
64923;SDS011;51436;44.692;39.214;2022-12-15T00:30:08;9.80;;;7.07;;
64923;SDS011;51436;44.692;39.214;2022-12-15T00:32:54;17.08;;;8.88;;
64923;SDS011;51436;44.692;39.214;2022-12-15T00:35:39;17.50;;;8.93;;
64923;SDS011;51436;44.692;39.214;2022-12-15T00:38:24;16.08;;;8.52;;
64923;SDS011;51436;44.692;39.214;2022-12-15T00:41:11;10.18;;;6.65;;
64923;SDS011;51436;44.692;39.214;2022-12-15T00:43:39;15.35;;;8.50;;
64923;SDS011;51436;44.692;39.214;2022-12-15T00:46:05;16.73;;;9.10;;
64923;SDS011;51436;44.692;39.214;2022-12-15T00:48:51;16.70;;;8.95;;
64923;SDS011;51436;44.692;39.214;2022-12-15T00:51:17;13.85;;;8.10;;
64923;SDS011;51436;44.692;39.214;2022-12-15T00:53:44;15.15;;;8.30;;
64923;SDS011;51436;44.692;39.214;2022-12-15T00:56:30;14.40;;;7.78;;
64923;SDS011;51436;44.692;39.214;2022-12-15T00:59:16;16.25;;;8.70;;
64923;SDS011;51436;44.692;39.214;2022-12-15T01:02:01;16.10;;;7.88;;
64923;SDS011;51436;44.692;39.214;2022-12-15T01:04:47;25.88;;;9.25;;
64923;SDS011;51436;44.692;39.214;2022-12-15T01:07:31;17.58;;;7.63;;
64923;SDS011;51436;44.692;39.214;2022-12-15T01:10:18;14.77;;;7.57;;
64923;SDS011;51436;44.692;39.214;2022-12-15T01:13:03;16.63;;;8.60;;
64923;SDS011;51436;44.692;39.214;2022-12-15T01:15:49;20.08;;;9.20;;
64923;SDS011;51436;44.692;39.214;2022-12-15T01:18:33;13.13;;;7.50;;
64923;SDS011;51436;44.692;39.214;2022-12-15T01:21:18;16.60;;;8.68;;
64923;SDS011;51436;44.692;39.214;2022-12-15T01:23:45;16.35;;;9.23;;
64923;SDS011;51436;44.692;39.214;2022-12-15T01:26:12;14.65;;;7.63;;
64923;SDS011;51436;44.692;39.214;2022-12-15T01:28:38;14.52;;;6.45;;
64923;SDS011;51436;44.692;39.214;2022-12-15T01:31:08;16.60;;;7.38;;
64923;SDS011;51436;44.692;39.214;2022-12-15T01:44:37;13.20;;;7.43;;
64923;SDS011;51436;44.692;39.214;2022-12-15T01:47:04;9.57;;;5.93;;
64923;SDS011;51436;44.692;39.214;2022-12-15T01:49:37;11.95;;;7.22;;
64923;SDS011;51436;44.692;39.214;2022-12-15T01:52:04;17.73;;;7.88;;
64923;SDS011;51436;44.692;39.214;2022-12-15T01:54:38;11.70;;;6.45;;
64923;SDS011;51436;44.692;39.214;2022-12-15T01:57:09;16.08;;;8.10;;
64923;SDS011;51436;44.692;39.214;2022-12-15T01:59:44;15.00;;;7.50;;
64923;SDS011;51436;44.692;39.214;2022-12-15T02:02:17;16.65;;;6.82;;
64923;SDS011;51436;44.692;39.214;2022-12-15T02:04:46;18.65;;;7.18;;
64923;SDS011;51436;44.692;39.214;2022-12-15T02:07:16;11.77;;;6.28;;
64923;SDS011;51436;44.692;39.214;2022-12-15T02:09:44;17.15;;;8.27;;
64923;SDS011;51436;44.692;39.214;2022-12-15T02:26:23;14.82;;;7.88;;
64923;SDS011;51436;44.692;39.214;2022-12-15T02:31:40;14.30;;;7.97;;
64923;SDS011;51436;44.692;39.214;2022-12-15T02:37:01;17.00;;;8.55;;
64923;SDS011;51436;44.692;39.214;2022-12-15T02:39:32;20.10;;;9.20;;
64923;SDS011;51436;44.692;39.214;2022-12-15T02:41:58;18.95;;;8.65;;
64923;SDS011;51436;44.692;39.214;2022-12-15T02:44:28;21.15;;;8.07;;
64923;SDS011;51436;44.692;39.214;2022-12-15T02:56:04;14.50;;;8.15;;
64923;SDS011;51436;44.692;39.214;2022-12-15T02:58:54;9.82;;;6.65;;
64923;SDS011;51436;44.692;39.214;2022-12-15T03:01:37;19.75;;;8.80;;
64923;SDS011;51436;44.692;39.214;2022-12-15T03:04:09;17.75;;;8.60;;
64923;SDS011;51436;44.692;39.214;2022-12-15T03:06:37;33.08;;;11.98;;
64923;SDS011;51436;44.692;39.214;2022-12-15T03:09:04;20.65;;;9.57;;
64923;SDS011;51436;44.692;39.214;2022-12-15T03:11:30;13.98;;;7.22;;
64923;SDS011;51436;44.692;39.214;2022-12-15T03:13:57;13.98;;;8.05;;
64923;SDS011;51436;44.692;39.214;2022-12-15T03:16:23;20.58;;;7.82;;
64923;SDS011;51436;44.692;39.214;2022-12-15T03:18:50;22.55;;;9.27;;
64923;SDS011;51436;44.692;39.214;2022-12-15T03:21:17;18.48;;;8.07;;
64923;SDS011;51436;44.692;39.214;2022-12-15T03:23:43;14.82;;;7.38;;
64923;SDS011;51436;44.692;39.214;2022-12-15T03:26:09;16.35;;;8.85;;
64923;SDS011;51436;44.692;39.214;2022-12-15T03:28:36;19.30;;;8.38;;
64923;SDS011;51436;44.692;39.214;2022-12-15T03:31:02;20.25;;;8.65;;
64923;SDS011;51436;44.692;39.214;2022-12-15T03:33:31;17.70;;;8.95;;
64923;SDS011;51436;44.692;39.214;2022-12-15T03:35:58;14.57;;;8.60;;
64923;SDS011;51436;44.692;39.214;2022-12-15T03:38:25;18.00;;;8.90;;
64923;SDS011;51436;44.692;39.214;2022-12-15T03:40:51;17.40;;;9.05;;
64923;SDS011;51436;44.692;39.214;2022-12-15T03:43:18;18.48;;;10.10;;
64923;SDS011;51436;44.692;39.214;2022-12-15T03:45:44;20.95;;;9.77;;
64923;SDS011;51436;44.692;39.214;2022-12-15T03:48:10;20.80;;;8.60;;
64923;SDS011;51436;44.692;39.214;2022-12-15T03:50:37;17.45;;;8.75;;
64923;SDS011;51436;44.692;39.214;2022-12-15T03:53:03;19.02;;;8.75;;
64923;SDS011;51436;44.692;39.214;2022-12-15T03:55:30;18.20;;;9.00;;
64923;SDS011;51436;44.692;39.214;2022-12-15T03:57:57;13.75;;;7.72;;
64923;SDS011;51436;44.692;39.214;2022-12-15T04:00:23;16.10;;;7.85;;
64923;SDS011;51436;44.692;39.214;2022-12-15T04:02:50;19.85;;;10.30;;
64923;SDS011;51436;44.692;39.214;2022-12-15T04:05:21;14.50;;;7.60;;
64923;SDS011;51436;44.692;39.214;2022-12-15T04:07:58;23.42;;;9.65;;
64923;SDS011;51436;44.692;39.214;2022-12-15T04:10:27;20.92;;;9.55;;
64923;SDS011;51436;44.692;39.214;2022-12-15T04:12:55;16.58;;;9.10;;
64923;SDS011;51436;44.692;39.214;2022-12-15T04:15:23;23.52;;;10.15;;
64923;SDS011;51436;44.692;39.214;2022-12-15T04:17:49;25.92;;;10.38;;
64923;SDS011;51436;44.692;39.214;2022-12-15T04:20:16;14.10;;;8.00;;
64923;SDS011;51436;44.692;39.214;2022-12-15T04:22:43;20.85;;;10.32;;
64923;SDS011;51436;44.692;39.214;2022-12-15T04:25:12;16.67;;;8.85;;
64923;SDS011;51436;44.692;39.214;2022-12-15T04:27:59;20.02;;;9.52;;
64923;SDS011;51436;44.692;39.214;2022-12-15T04:30:45;18.63;;;10.15;;
64923;SDS011;51436;44.692;39.214;2022-12-15T04:33:35;23.00;;;10.05;;
64923;SDS011;51436;44.692;39.214;2022-12-15T04:36:22;23.25;;;8.38;;
64923;SDS011;51436;44.692;39.214;2022-12-15T04:39:07;26.38;;;11.10;;
64923;SDS011;51436;44.692;39.214;2022-12-15T04:41:52;18.08;;;9.40;;
64923;SDS011;51436;44.692;39.214;2022-12-15T04:44:39;16.92;;;9.07;;
64923;SDS011;51436;44.692;39.214;2022-12-15T04:47:24;24.45;;;9.38;;
64923;SDS011;51436;44.692;39.214;2022-12-15T04:50:08;18.15;;;8.70;;
64923;SDS011;51436;44.692;39.214;2022-12-15T04:52:53;26.58;;;9.98;;
64923;SDS011;51436;44.692;39.214;2022-12-15T04:55:38;17.90;;;9.63;;
64923;SDS011;51436;44.692;39.214;2022-12-15T04:58:23;21.67;;;9.45;;
64923;SDS011;51436;44.692;39.214;2022-12-15T05:01:08;21.10;;;10.38;;
64923;SDS011;51436;44.692;39.214;2022-12-15T05:03:52;19.38;;;10.10;;
64923;SDS011;51436;44.692;39.214;2022-12-15T05:06:37;20.83;;;10.88;;
64923;SDS011;51436;44.692;39.214;2022-12-15T05:09:22;28.48;;;11.40;;
64923;SDS011;51436;44.692;39.214;2022-12-15T05:12:07;22.88;;;11.20;;
64923;SDS011;51436;44.692;39.214;2022-12-15T05:14:52;24.50;;;10.48;;
64923;SDS011;51436;44.692;39.214;2022-12-15T05:17:37;27.50;;;11.23;;
64923;SDS011;51436;44.692;39.214;2022-12-15T05:20:22;20.08;;;8.88;;
64923;SDS011;51436;44.692;39.214;2022-12-15T05:23:07;21.63;;;11.88;;
64923;SDS011;51436;44.692;39.214;2022-12-15T05:25:51;22.35;;;8.90;;
64923;SDS011;51436;44.692;39.214;2022-12-15T05:28:36;27.15;;;10.43;;
64923;SDS011;51436;44.692;39.214;2022-12-15T05:31:21;25.10;;;10.20;;
64923;SDS011;51436;44.692;39.214;2022-12-15T05:34:06;20.60;;;9.05;;
64923;SDS011;51436;44.692;39.214;2022-12-15T05:36:32;23.25;;;9.57;;
64923;SDS011;51436;44.692;39.214;2022-12-15T05:38:59;18.52;;;9.10;;
64923;SDS011;51436;44.692;39.214;2022-12-15T05:41:25;29.67;;;11.68;;
64923;SDS011;51436;44.692;39.214;2022-12-15T05:43:51;22.55;;;11.13;;
64923;SDS011;51436;44.692;39.214;2022-12-15T05:46:17;19.95;;;11.05;;
64923;SDS011;51436;44.692;39.214;2022-12-15T05:48:44;20.40;;;10.70;;
64923;SDS011;51436;44.692;39.214;2022-12-15T05:51:11;23.45;;;9.57;;
64923;SDS011;51436;44.692;39.214;2022-12-15T05:53:38;22.63;;;10.43;;
64923;SDS011;51436;44.692;39.214;2022-12-15T05:56:07;21.15;;;10.55;;
64923;SDS011;51436;44.692;39.214;2022-12-15T05:58:38;20.77;;;10.48;;
64923;SDS011;51436;44.692;39.214;2022-12-15T06:01:07;28.52;;;10.35;;
64923;SDS011;51436;44.692;39.214;2022-12-15T06:03:36;19.10;;;8.75;;
64923;SDS011;51436;44.692;39.214;2022-12-15T06:06:04;18.08;;;9.25;;
64923;SDS011;51436;44.692;39.214;2022-12-15T06:08:32;21.60;;;10.43;;
64923;SDS011;51436;44.692;39.214;2022-12-15T06:11:00;21.40;;;9.93;;
64923;SDS011;51436;44.692;39.214;2022-12-15T06:13:29;29.33;;;9.32;;
64923;SDS011;51436;44.692;39.214;2022-12-15T06:15:57;19.92;;;9.35;;
64923;SDS011;51436;44.692;39.214;2022-12-15T06:18:39;25.25;;;10.18;;
64923;SDS011;51436;44.692;39.214;2022-12-15T06:21:09;18.15;;;9.20;;
64923;SDS011;51436;44.692;39.214;2022-12-15T06:23:40;20.05;;;9.15;;
64923;SDS011;51436;44.692;39.214;2022-12-15T06:26:11;14.18;;;8.18;;
64923;SDS011;51436;44.692;39.214;2022-12-15T06:28:40;21.85;;;9.70;;
64923;SDS011;51436;44.692;39.214;2022-12-15T06:31:07;21.95;;;9.40;;
64923;SDS011;51436;44.692;39.214;2022-12-15T06:33:34;16.67;;;9.88;;
64923;SDS011;51436;44.692;39.214;2022-12-15T06:36:02;21.33;;;9.57;;
64923;SDS011;51436;44.692;39.214;2022-12-15T06:38:34;19.50;;;9.43;;
64923;SDS011;51436;44.692;39.214;2022-12-15T06:41:01;20.20;;;9.48;;
64923;SDS011;51436;44.692;39.214;2022-12-15T06:43:29;19.20;;;9.55;;
64923;SDS011;51436;44.692;39.214;2022-12-15T06:45:56;22.77;;;8.20;;
64923;SDS011;51436;44.692;39.214;2022-12-15T06:48:23;17.73;;;7.75;;
64923;SDS011;51436;44.692;39.214;2022-12-15T06:50:50;23.85;;;9.30;;
64923;SDS011;51436;44.692;39.214;2022-12-15T06:53:18;25.38;;;10.75;;
64923;SDS011;51436;44.692;39.214;2022-12-15T06:55:45;19.15;;;8.77;;
64923;SDS011;51436;44.692;39.214;2022-12-15T06:58:12;23.45;;;9.23;;
64923;SDS011;51436;44.692;39.214;2022-12-15T07:00:40;24.52;;;10.25;;
64923;SDS011;51436;44.692;39.214;2022-12-15T07:03:15;22.33;;;9.32;;
64923;SDS011;51436;44.692;39.214;2022-12-15T07:05:43;16.60;;;9.63;;
64923;SDS011;51436;44.692;39.214;2022-12-15T07:08:10;19.33;;;9.52;;
64923;SDS011;51436;44.692;39.214;2022-12-15T07:10:41;18.42;;;9.48;;
64923;SDS011;51436;44.692;39.214;2022-12-15T07:13:12;26.52;;;9.95;;
64923;SDS011;51436;44.692;39.214;2022-12-15T07:15:38;32.05;;;10.60;;
64923;SDS011;51436;44.692;39.214;2022-12-15T07:18:06;19.50;;;9.90;;
64923;SDS011;51436;44.692;39.214;2022-12-15T07:20:35;22.15;;;10.45;;
64923;SDS011;51436;44.692;39.214;2022-12-15T07:23:01;14.85;;;8.57;;
64923;SDS011;51436;44.692;39.214;2022-12-15T07:25:37;21.15;;;9.90;;
64923;SDS011;51436;44.692;39.214;2022-12-15T07:28:05;18.63;;;8.02;;
64923;SDS011;51436;44.692;39.214;2022-12-15T07:30:33;23.95;;;9.05;;
64923;SDS011;51436;44.692;39.214;2022-12-15T07:33:00;21.27;;;9.32;;
64923;SDS011;51436;44.692;39.214;2022-12-15T07:35:27;25.88;;;8.50;;
64923;SDS011;51436;44.692;39.214;2022-12-15T07:37:54;20.73;;;9.00;;
64923;SDS011;51436;44.692;39.214;2022-12-15T07:40:20;15.35;;;8.10;;
64923;SDS011;51436;44.692;39.214;2022-12-15T07:42:47;25.35;;;9.50;;
64923;SDS011;51436;44.692;39.214;2022-12-15T07:53:33;17.23;;;8.18;;
64923;SDS011;51436;44.692;39.214;2022-12-15T07:55:43;20.80;;;9.45;;
64923;SDS011;51436;44.692;39.214;2022-12-15T07:58:09;17.73;;;9.43;;
64923;SDS011;51436;44.692;39.214;2022-12-15T08:00:36;17.48;;;8.88;;
64923;SDS011;51436;44.692;39.214;2022-12-15T08:03:02;15.02;;;8.35;;
64923;SDS011;51436;44.692;39.214;2022-12-15T08:05:28;13.48;;;6.82;;
64923;SDS011;51436;44.692;39.214;2022-12-15T08:07:56;18.63;;;9.23;;
64923;SDS011;51436;44.692;39.214;2022-12-15T08:10:23;15.82;;;9.35;;
64923;SDS011;51436;44.692;39.214;2022-12-15T08:12:49;18.63;;;8.10;;
64923;SDS011;51436;44.692;39.214;2022-12-15T08:15:16;17.33;;;8.82;;
64923;SDS011;51436;44.692;39.214;2022-12-15T08:17:42;15.65;;;8.10;;
64923;SDS011;51436;44.692;39.214;2022-12-15T08:20:08;15.85;;;8.15;;
64923;SDS011;51436;44.692;39.214;2022-12-15T08:22:35;16.17;;;8.45;;
64923;SDS011;51436;44.692;39.214;2022-12-15T08:25:02;14.43;;;8.32;;
64923;SDS011;51436;44.692;39.214;2022-12-15T08:27:29;18.45;;;7.57;;
64923;SDS011;51436;44.692;39.214;2022-12-15T08:29:55;15.95;;;9.18;;
64923;SDS011;51436;44.692;39.214;2022-12-15T08:32:21;20.00;;;8.75;;
64923;SDS011;51436;44.692;39.214;2022-12-15T08:34:48;19.23;;;9.45;;
64923;SDS011;51436;44.692;39.214;2022-12-15T08:37:15;19.85;;;8.88;;
64923;SDS011;51436;44.692;39.214;2022-12-15T08:39:41;16.55;;;8.52;;
64923;SDS011;51436;44.692;39.214;2022-12-15T08:42:07;14.70;;;8.25;;
64923;SDS011;51436;44.692;39.214;2022-12-15T08:44:34;16.25;;;8.38;;
64923;SDS011;51436;44.692;39.214;2022-12-15T08:47:00;19.83;;;8.80;;
64923;SDS011;51436;44.692;39.214;2022-12-15T08:49:27;15.40;;;8.77;;
64923;SDS011;51436;44.692;39.214;2022-12-15T08:51:53;19.15;;;9.57;;
64923;SDS011;51436;44.692;39.214;2022-12-15T08:54:19;21.35;;;9.30;;
64923;SDS011;51436;44.692;39.214;2022-12-15T08:56:46;15.57;;;9.32;;
64923;SDS011;51436;44.692;39.214;2022-12-15T08:59:13;16.83;;;9.27;;
64923;SDS011;51436;44.692;39.214;2022-12-15T09:01:40;17.13;;;8.93;;
64923;SDS011;51436;44.692;39.214;2022-12-15T09:04:07;18.60;;;9.65;;
64923;SDS011;51436;44.692;39.214;2022-12-15T09:06:34;18.63;;;8.98;;
64923;SDS011;51436;44.692;39.214;2022-12-15T09:09:06;20.88;;;8.25;;
64923;SDS011;51436;44.692;39.214;2022-12-15T09:11:35;19.98;;;8.98;;
64923;SDS011;51436;44.692;39.214;2022-12-15T09:14:01;17.33;;;9.23;;
64923;SDS011;51436;44.692;39.214;2022-12-15T09:16:28;23.45;;;10.43;;
64923;SDS011;51436;44.692;39.214;2022-12-15T09:18:56;29.42;;;10.02;;
64923;SDS011;51436;44.692;39.214;2022-12-15T09:21:25;17.08;;;8.65;;
64923;SDS011;51436;44.692;39.214;2022-12-15T09:23:56;16.63;;;7.80;;
64923;SDS011;51436;44.692;39.214;2022-12-15T09:26:25;16.65;;;8.82;;
64923;SDS011;51436;44.692;39.214;2022-12-15T09:28:52;20.23;;;9.43;;
64923;SDS011;51436;44.692;39.214;2022-12-15T09:31:23;19.15;;;8.80;;
64923;SDS011;51436;44.692;39.214;2022-12-15T09:34:12;19.58;;;7.47;;
64923;SDS011;51436;44.692;39.214;2022-12-15T09:36:40;16.17;;;7.57;;
64923;SDS011;51436;44.692;39.214;2022-12-15T09:39:07;16.77;;;8.85;;
64923;SDS011;51436;44.692;39.214;2022-12-15T09:41:36;14.77;;;7.90;;
64923;SDS011;51436;44.692;39.214;2022-12-15T09:44:18;24.60;;;9.18;;
64923;SDS011;51436;44.692;39.214;2022-12-15T09:49:59;13.00;;;7.28;;
64923;SDS011;51436;44.692;39.214;2022-12-15T09:52:31;19.42;;;8.25;;
64923;SDS011;51436;44.692;39.214;2022-12-15T09:55:04;15.50;;;7.75;;
64923;SDS011;51436;44.692;39.214;2022-12-15T09:57:52;13.35;;;7.32;;
64923;SDS011;51436;44.692;39.214;2022-12-15T10:08:16;12.23;;;6.82;;
64923;SDS011;51436;44.692;39.214;2022-12-15T10:13:39;15.38;;;7.32;;
64923;SDS011;51436;44.692;39.214;2022-12-15T10:16:33;12.85;;;6.93;;
64923;SDS011;51436;44.692;39.214;2022-12-15T10:22:33;9.82;;;6.57;;
64923;SDS011;51436;44.692;39.214;2022-12-15T10:25:23;11.70;;;6.85;;
64923;SDS011;51436;44.692;39.214;2022-12-15T10:33:30;10.10;;;5.72;;
64923;SDS011;51436;44.692;39.214;2022-12-15T10:36:00;7.15;;;4.82;;
64923;SDS011;51436;44.692;39.214;2022-12-15T10:38:45;17.35;;;7.15;;
64923;SDS011;51436;44.692;39.214;2022-12-15T10:43:51;10.43;;;6.80;;
64923;SDS011;51436;44.692;39.214;2022-12-15T10:46:22;10.98;;;5.25;;
64923;SDS011;51436;44.692;39.214;2022-12-15T10:48:55;6.90;;;5.85;;
64923;SDS011;51436;44.692;39.214;2022-12-15T10:56:26;11.13;;;6.53;;
64923;SDS011;51436;44.692;39.214;2022-12-15T10:58:54;16.55;;;6.00;;
64923;SDS011;51436;44.692;39.214;2022-12-15T11:01:23;26.88;;;12.50;;
64923;SDS011;51436;44.692;39.214;2022-12-15T11:03:52;135.60;;;77.82;;
64923;SDS011;51436;44.692;39.214;2022-12-15T11:06:29;124.07;;;72.55;;
64923;SDS011;51436;44.692;39.214;2022-12-15T11:09:07;81.70;;;53.47;;
64923;SDS011;51436;44.692;39.214;2022-12-15T11:11:52;69.45;;;46.00;;
64923;SDS011;51436;44.692;39.214;2022-12-15T11:14:47;33.53;;;25.73;;
64923;SDS011;51436;44.692;39.214;2022-12-15T11:17:16;27.75;;;21.65;;
64923;SDS011;51436;44.692;39.214;2022-12-15T11:24:51;93.05;;;56.60;;
64923;SDS011;51436;44.692;39.214;2022-12-15T11:27:32;89.70;;;55.88;;
64923;SDS011;51436;44.692;39.214;2022-12-15T11:32:46;145.18;;;71.10;;
64923;SDS011;51436;44.692;39.214;2022-12-15T11:35:29;166.55;;;75.18;;
64923;SDS011;51436;44.692;39.214;2022-12-15T11:38:22;200.75;;;85.82;;
64923;SDS011;51436;44.692;39.214;2022-12-15T11:41:38;176.43;;;79.70;;
64923;SDS011;51436;44.692;39.214;2022-12-15T11:46:38;229.40;;;94.63;;
64923;SDS011;51436;44.692;39.214;2022-12-15T11:55:04;260.58;;;99.03;;
64923;SDS011;51436;44.692;39.214;2022-12-15T11:57:42;292.58;;;110.13;;
64923;SDS011;51436;44.692;39.214;2022-12-15T12:00:20;232.98;;;90.38;;
64923;SDS011;51436;44.692;39.214;2022-12-15T12:05:31;236.75;;;91.07;;
64923;SDS011;51436;44.692;39.214;2022-12-15T12:11:26;524.20;;;204.90;;
64923;SDS011;51436;44.692;39.214;2022-12-15T12:14:10;251.05;;;94.82;;
64923;SDS011;51436;44.692;39.214;2022-12-15T12:16:56;324.63;;;109.57;;
64923;SDS011;51436;44.692;39.214;2022-12-15T12:19:53;414.48;;;132.70;;
64923;SDS011;51436;44.692;39.214;2022-12-15T12:25:00;384.02;;;123.35;;
64923;SDS011;51436;44.692;39.214;2022-12-15T12:27:35;459.73;;;146.23;;
64923;SDS011;51436;44.692;39.214;2022-12-15T12:33:02;392.05;;;124.38;;
64923;SDS011;51436;44.692;39.214;2022-12-15T12:41:30;473.25;;;146.82;;
64923;SDS011;51436;44.692;39.214;2022-12-15T12:44:37;483.23;;;148.90;;
64923;SDS011;51436;44.692;39.214;2022-12-15T12:49:41;534.38;;;174.32;;
64923;SDS011;51436;44.692;39.214;2022-12-15T12:52:24;555.00;;;175.52;;
64923;SDS011;51436;44.692;39.214;2022-12-15T12:54:55;601.28;;;194.55;;
64923;SDS011;51436;44.692;39.214;2022-12-15T12:57:34;634.40;;;213.60;;
64923;SDS011;51436;44.692;39.214;2022-12-15T13:05:01;620.95;;;216.10;;
64923;SDS011;51436;44.692;39.214;2022-12-15T13:07:53;426.63;;;154.13;;
64923;SDS011;51436;44.692;39.214;2022-12-15T13:10:32;13.10;;;6.15;;
64923;SDS011;51436;44.692;39.214;2022-12-15T13:15:42;17.23;;;7.40;;
64923;SDS011;51436;44.692;39.214;2022-12-15T13:18:16;12.60;;;6.70;;
64923;SDS011;51436;44.692;39.214;2022-12-15T13:20:48;22.42;;;6.50;;
64923;SDS011;51436;44.692;39.214;2022-12-15T13:41:43;17.42;;;8.27;;
64923;SDS011;51436;44.692;39.214;2022-12-15T13:44:26;18.45;;;8.57;;
64923;SDS011;51436;44.692;39.214;2022-12-15T13:47:12;16.10;;;6.72;;
64923;SDS011;51436;44.692;39.214;2022-12-15T13:49:47;14.00;;;6.57;;
64923;SDS011;51436;44.692;39.214;2022-12-15T13:52:44;13.10;;;5.82;;
64923;SDS011;51436;44.692;39.214;2022-12-15T14:03:20;7.93;;;4.82;;
64923;SDS011;51436;44.692;39.214;2022-12-15T14:05:54;8.60;;;4.47;;
64923;SDS011;51436;44.692;39.214;2022-12-15T14:08:23;11.45;;;6.25;;
64923;SDS011;51436;44.692;39.214;2022-12-15T14:10:54;16.25;;;5.90;;
64923;SDS011;51436;44.692;39.214;2022-12-15T14:13:26;10.98;;;4.65;;
64923;SDS011;51436;44.692;39.214;2022-12-15T14:16:18;11.68;;;5.15;;
64923;SDS011;51436;44.692;39.214;2022-12-15T14:21:39;9.57;;;5.32;;
64923;SDS011;51436;44.692;39.214;2022-12-15T14:24:27;14.60;;;5.65;;
64923;SDS011;51436;44.692;39.214;2022-12-15T14:26:58;11.02;;;5.32;;
64923;SDS011;51436;44.692;39.214;2022-12-15T14:29:24;11.45;;;6.05;;
64923;SDS011;51436;44.692;39.214;2022-12-15T14:31:54;13.48;;;4.80;;
64923;SDS011;51436;44.692;39.214;2022-12-15T14:34:23;7.60;;;5.03;;
64923;SDS011;51436;44.692;39.214;2022-12-15T14:37:06;6.47;;;4.57;;
64923;SDS011;51436;44.692;39.214;2022-12-15T14:39:39;12.15;;;5.43;;
64923;SDS011;51436;44.692;39.214;2022-12-15T14:42:17;9.13;;;5.15;;
64923;SDS011;51436;44.692;39.214;2022-12-15T14:44:48;11.57;;;5.60;;
64923;SDS011;51436;44.692;39.214;2022-12-15T14:47:22;11.10;;;5.38;;
64923;SDS011;51436;44.692;39.214;2022-12-15T14:49:58;13.83;;;5.13;;
64923;SDS011;51436;44.692;39.214;2022-12-15T14:52:28;9.18;;;5.50;;
64923;SDS011;51436;44.692;39.214;2022-12-15T14:55:47;8.75;;;5.22;;
64923;SDS011;51436;44.692;39.214;2022-12-15T14:57:57;9.60;;;5.68;;
64923;SDS011;51436;44.692;39.214;2022-12-15T15:00:27;9.57;;;5.53;;
64923;SDS011;51436;44.692;39.214;2022-12-15T15:05:54;8.10;;;5.65;;
64923;SDS011;51436;44.692;39.214;2022-12-15T15:08:26;16.02;;;5.95;;
64923;SDS011;51436;44.692;39.214;2022-12-15T15:11:03;8.35;;;4.75;;
64923;SDS011;51436;44.692;39.214;2022-12-15T15:13:45;11.60;;;5.57;;
64923;SDS011;51436;44.692;39.214;2022-12-15T15:16:16;12.25;;;6.75;;
64923;SDS011;51436;44.692;39.214;2022-12-15T15:18:43;12.48;;;6.70;;
64923;SDS011;51436;44.692;39.214;2022-12-15T15:21:25;21.92;;;6.78;;
64923;SDS011;51436;44.692;39.214;2022-12-15T15:23:58;10.90;;;5.43;;
64923;SDS011;51436;44.692;39.214;2022-12-15T15:26:37;13.13;;;5.75;;
64923;SDS011;51436;44.692;39.214;2022-12-15T15:32:04;13.68;;;6.32;;
64923;SDS011;51436;44.692;39.214;2022-12-15T15:34:42;17.88;;;6.43;;
64923;SDS011;51436;44.692;39.214;2022-12-15T15:37:19;14.45;;;5.55;;
64923;SDS011;51436;44.692;39.214;2022-12-15T15:39:48;8.88;;;5.07;;
64923;SDS011;51436;44.692;39.214;2022-12-15T15:42:16;11.98;;;6.20;;
64923;SDS011;51436;44.692;39.214;2022-12-15T15:44:43;29.80;;;7.35;;
64923;SDS011;51436;44.692;39.214;2022-12-15T15:47:25;11.80;;;6.20;;
64923;SDS011;51436;44.692;39.214;2022-12-15T15:49:52;11.43;;;5.47;;
64923;SDS011;51436;44.692;39.214;2022-12-15T15:52:19;14.65;;;6.15;;
64923;SDS011;51436;44.692;39.214;2022-12-15T15:54:46;17.17;;;6.82;;
64923;SDS011;51436;44.692;39.214;2022-12-15T15:57:14;8.25;;;5.20;;
64923;SDS011;51436;44.692;39.214;2022-12-15T15:59:41;19.83;;;5.95;;
64923;SDS011;51436;44.692;39.214;2022-12-15T16:02:10;13.10;;;6.82;;
64923;SDS011;51436;44.692;39.214;2022-12-15T16:04:38;21.02;;;7.68;;
64923;SDS011;51436;44.692;39.214;2022-12-15T16:07:21;17.52;;;8.38;;
64923;SDS011;51436;44.692;39.214;2022-12-15T16:09:50;16.77;;;7.38;;
64923;SDS011;51436;44.692;39.214;2022-12-15T16:12:41;19.20;;;8.13;;
64923;SDS011;51436;44.692;39.214;2022-12-15T16:15:23;16.92;;;8.40;;
64923;SDS011;51436;44.692;39.214;2022-12-15T16:17:51;27.98;;;10.68;;
64923;SDS011;51436;44.692;39.214;2022-12-15T16:20:20;19.20;;;8.98;;
64923;SDS011;51436;44.692;39.214;2022-12-15T16:22:50;23.17;;;10.80;;
64923;SDS011;51436;44.692;39.214;2022-12-15T16:25:32;23.20;;;10.63;;
64923;SDS011;51436;44.692;39.214;2022-12-15T16:28:04;15.75;;;9.55;;
64923;SDS011;51436;44.692;39.214;2022-12-15T16:30:35;21.73;;;9.77;;
64923;SDS011;51436;44.692;39.214;2022-12-15T16:33:03;15.00;;;8.65;;
64923;SDS011;51436;44.692;39.214;2022-12-15T16:35:29;15.10;;;8.43;;
64923;SDS011;51436;44.692;39.214;2022-12-15T16:37:56;23.52;;;8.23;;
64923;SDS011;51436;44.692;39.214;2022-12-15T16:40:24;13.43;;;8.13;;
64923;SDS011;51436;44.692;39.214;2022-12-15T16:42:53;17.05;;;8.18;;
64923;SDS011;51436;44.692;39.214;2022-12-15T16:45:25;16.20;;;7.78;;
64923;SDS011;51436;44.692;39.214;2022-12-15T16:47:54;15.00;;;8.85;;
64923;SDS011;51436;44.692;39.214;2022-12-15T16:50:30;16.00;;;8.65;;
64923;SDS011;51436;44.692;39.214;2022-12-15T16:53:00;16.52;;;8.85;;
64923;SDS011;51436;44.692;39.214;2022-12-15T16:55:29;19.27;;;10.75;;
64923;SDS011;51436;44.692;39.214;2022-12-15T16:58:00;24.40;;;10.15;;
64923;SDS011;51436;44.692;39.214;2022-12-15T17:00:30;24.05;;;11.32;;
64923;SDS011;51436;44.692;39.214;2022-12-15T17:02:59;19.48;;;9.43;;
64923;SDS011;51436;44.692;39.214;2022-12-15T17:05:33;19.33;;;10.32;;
64923;SDS011;51436;44.692;39.214;2022-12-15T17:08:02;17.67;;;9.25;;
64923;SDS011;51436;44.692;39.214;2022-12-15T17:10:30;22.77;;;10.13;;
64923;SDS011;51436;44.692;39.214;2022-12-15T17:13:05;18.23;;;10.18;;
64923;SDS011;51436;44.692;39.214;2022-12-15T17:15:39;20.52;;;10.63;;
64923;SDS011;51436;44.692;39.214;2022-12-15T17:18:05;22.20;;;11.10;;
64923;SDS011;51436;44.692;39.214;2022-12-15T17:20:31;22.70;;;9.55;;
64923;SDS011;51436;44.692;39.214;2022-12-15T17:22:59;20.48;;;9.57;;
64923;SDS011;51436;44.692;39.214;2022-12-15T17:25:31;22.08;;;9.48;;
64923;SDS011;51436;44.692;39.214;2022-12-15T17:28:02;18.50;;;9.25;;
64923;SDS011;51436;44.692;39.214;2022-12-15T17:30:31;17.63;;;9.07;;
64923;SDS011;51436;44.692;39.214;2022-12-15T17:32:57;33.08;;;10.60;;